Time;durP1;ratioP1;P1;durP2;ratioP2;P2;SDS_P1;SDS_P2;PMS_P1;PMS_P2;Temp;Humidity;BMP_temperature;BMP_pressure;BME280_temperature;BME280_humidity;BME280_pressure;Samples;Min_cycle;Max_cycle;Signal;HPM_P1;HPM_P2
2023/06/29 00:02:24;;;;;;;0.50;0.30;;;20.30;99.90;;;;;;5059986;28;20526;-85
2023/06/29 00:04:52;;;;;;;0.50;0.30;;;20.30;99.90;;;;;;5059917;28;20439;-86
2023/06/29 00:07:18;;;;;;;0.50;0.30;;;20.30;99.90;;;;;;5060120;28;20608;-85
2023/06/29 00:09:47;;;;;;;0.50;0.30;;;20.30;99.90;;;;;;5059821;28;20464;-84
2023/06/29 00:12:14;;;;;;;0.50;0.40;;;20.30;99.90;;;;;;5059465;28;20463;-85
2023/06/29 00:14:40;;;;;;;0.50;0.30;;;20.30;99.90;;;;;;5059151;28;20451;-85
2023/06/29 00:17:07;;;;;;;0.50;0.30;;;20.30;99.90;;;;;;5059664;28;20528;-85
2023/06/29 00:19:35;;;;;;;0.50;0.30;;;20.30;99.90;;;;;;5059308;28;20540;-85
2023/06/29 00:22:01;;;;;;;0.50;0.40;;;20.30;99.90;;;;;;5060059;28;20468;-86
2023/06/29 00:24:29;;;;;;;0.50;0.30;;;20.30;99.90;;;;;;5059714;28;20444;-85
2023/06/29 00:26:57;;;;;;;2.70;2.50;;;20.20;99.90;;;;;;5051243;28;20449;-85
2023/06/29 00:29:24;;;;;;;0.50;0.30;;;20.20;99.90;;;;;;5059545;28;20511;-85
2023/06/29 00:31:51;;;;;;;0.50;0.30;;;20.20;99.90;;;;;;5059717;28;20469;-86
2023/06/29 00:34:17;;;;;;;0.50;0.30;;;20.20;99.90;;;;;;5059756;28;20468;-85
2023/06/29 00:36:44;;;;;;;0.50;0.30;;;20.20;99.90;;;;;;5058574;28;20527;-85
2023/06/29 00:39:11;;;;;;;0.50;0.40;;;20.20;99.90;;;;;;5058736;28;20460;-85
2023/06/29 00:41:38;;;;;;;0.50;0.30;;;20.20;99.90;;;;;;5058657;28;20479;-85
2023/06/29 00:44:06;;;;;;;0.50;0.40;;;20.30;99.90;;;;;;5055758;28;20560;-85
2023/06/29 00:46:33;;;;;;;0.50;0.30;;;20.20;99.90;;;;;;5052513;28;20459;-83
2023/06/29 00:49:00;;;;;;;0.50;0.30;;;20.20;99.90;;;;;;5052602;28;20934;-84
2023/06/29 00:51:29;;;;;;;0.50;0.30;;;20.20;99.90;;;;;;5052594;28;20949;-82
2023/06/29 00:53:56;;;;;;;0.50;0.30;;;20.20;99.90;;;;;;5052416;28;20517;-83
2023/06/29 00:56:23;;;;;;;0.50;0.30;;;20.20;99.90;;;;;;5052768;28;20944;-84
2023/06/29 00:58:50;;;;;;;0.50;0.30;;;20.20;99.90;;;;;;5052376;28;20453;-84
2023/06/29 01:01:18;;;;;;;0.50;0.30;;;20.20;99.90;;;;;;5052681;28;20936;-84
2023/06/29 01:03:45;;;;;;;0.50;0.30;;;20.20;99.90;;;;;;5052523;28;20473;-83
2023/06/29 01:06:17;;;;;;;0.50;0.37;;;20.20;99.90;;;;;;5051196;28;20445;-84
2023/06/29 01:08:49;;;;;;;0.50;0.30;;;20.10;99.90;;;;;;5052124;28;20451;-83
2023/06/29 01:11:16;;;;;;;0.50;0.30;;;20.10;99.90;;;;;;5052300;28;20444;-84
2023/06/29 01:13:46;;;;;;;0.50;0.30;;;20.10;99.90;;;;;;5051912;28;20499;-84
2023/06/29 01:16:16;;;;;;;0.50;0.30;;;20.10;99.90;;;;;;5052375;28;20457;-84
2023/06/29 01:18:46;;;;;;;0.50;0.30;;;20.10;99.90;;;;;;5051768;28;20453;-83
2023/06/29 01:21:14;;;;;;;0.50;0.30;;;20.10;99.90;;;;;;5052343;28;20891;-84
2023/06/29 01:23:42;;;;;;;0.50;0.30;;;20.10;99.90;;;;;;5051810;28;20461;-84
2023/06/29 01:26:12;;;;;;;0.50;0.30;;;20.00;99.90;;;;;;5052167;28;20826;-84
2023/06/29 01:28:39;;;;;;;0.50;0.30;;;20.10;99.90;;;;;;5051506;28;20542;-84
2023/06/29 01:31:06;;;;;;;0.50;0.30;;;20.10;99.90;;;;;;5052171;28;20528;-84
2023/06/29 01:33:34;;;;;;;0.50;0.30;;;20.00;99.90;;;;;;5051707;28;20493;-84
2023/06/29 01:36:07;;;;;;;0.50;0.30;;;20.10;99.90;;;;;;5052271;28;20441;-84
2023/06/29 01:38:40;;;;;;;1.17;1.00;;;20.00;99.90;;;;;;5051696;28;20449;-83
2023/06/29 01:41:08;;;;;;;0.50;0.30;;;20.00;99.90;;;;;;5044468;28;20440;-83
2023/06/29 01:43:37;;;;;;;0.50;0.30;;;20.00;99.90;;;;;;5051538;28;20841;-82
2023/06/29 01:46:05;;;;;;;0.50;0.30;;;20.00;99.90;;;;;;5046998;28;20534;-84
2023/06/29 01:48:33;;;;;;;0.50;0.30;;;20.00;99.90;;;;;;5053890;28;20438;-84
2023/06/29 01:51:00;;;;;;;0.50;0.30;;;20.00;99.90;;;;;;5053953;28;20447;-85
2023/06/29 01:53:28;;;;;;;0.50;0.30;;;19.90;99.90;;;;;;5054153;28;20548;-85
2023/06/29 01:55:55;;;;;;;0.50;0.30;;;19.90;99.90;;;;;;5053445;28;20450;-85
2023/06/29 01:58:21;;;;;;;0.50;0.30;;;19.90;99.90;;;;;;5053892;28;20471;-85
2023/06/29 02:00:50;;;;;;;0.50;0.30;;;19.90;99.90;;;;;;5054288;28;20443;-85
2023/06/29 02:03:17;;;;;;;0.50;0.30;;;19.90;99.90;;;;;;5054646;28;20478;-85
2023/06/29 02:05:43;;;;;;;0.50;0.30;;;19.90;99.90;;;;;;5053857;28;20507;-84
2023/06/29 02:08:10;;;;;;;0.50;0.30;;;20.00;99.90;;;;;;5053764;28;20537;-85
2023/06/29 02:10:37;;;;;;;0.50;0.30;;;20.00;99.90;;;;;;5054278;28;20923;-85
2023/06/29 02:13:04;;;;;;;0.60;0.60;;;20.00;99.90;;;;;;5054387;28;20459;-85
2023/06/29 02:15:31;;;;;;;0.50;0.30;;;20.00;99.90;;;;;;5053649;28;20532;-84
2023/06/29 02:17:59;;;;;;;0.50;0.30;;;20.00;99.90;;;;;;5053947;28;20443;-84
2023/06/29 02:20:26;;;;;;;0.50;0.30;;;20.00;99.90;;;;;;5054491;28;20444;-84
2023/06/29 02:22:52;;;;;;;0.50;0.37;;;20.00;99.90;;;;;;5053889;28;20461;-84
2023/06/29 02:25:19;;;;;;;0.50;0.30;;;20.00;99.90;;;;;;5053761;28;20515;-85
2023/06/29 02:27:46;;;;;;;0.50;0.30;;;19.90;99.90;;;;;;5066282;28;20453;-83
2023/06/29 02:30:14;;;;;;;0.50;0.30;;;19.90;99.90;;;;;;5069862;28;20520;-86
2023/06/29 02:32:41;;;;;;;0.60;0.60;;;19.90;99.90;;;;;;5058160;28;20535;-85
2023/06/29 02:35:10;;;;;;;1.03;1.03;;;19.90;99.90;;;;;;5051830;22;20494;-79
2023/06/29 02:37:36;;;;;;;0.50;0.30;;;19.90;99.90;;;;;;5028859;28;20517;-79
2023/06/29 02:40:04;;;;;;;0.50;0.40;;;19.90;99.90;;;;;;5024491;28;20993;-79
2023/06/29 02:42:31;;;;;;;0.50;0.30;;;19.90;99.90;;;;;;5025833;28;20878;-79
2023/06/29 02:44:58;;;;;;;0.50;0.40;;;19.90;99.90;;;;;;5038905;28;20500;-79
2023/06/29 02:47:25;;;;;;;0.50;0.30;;;19.90;99.90;;;;;;5053903;28;20442;-78
2023/06/29 02:49:52;;;;;;;0.50;0.30;;;19.90;99.90;;;;;;5053094;28;20796;-79
2023/06/29 02:52:20;;;;;;;0.50;0.33;;;19.90;99.90;;;;;;5054209;28;20519;-78
2023/06/29 02:54:46;;;;;;;0.50;0.30;;;19.90;99.90;;;;;;5052923;28;20489;-79
2023/06/29 02:57:14;;;;;;;0.50;0.30;;;19.90;99.90;;;;;;5053970;28;20509;-78
2023/06/29 02:59:40;;;;;;;0.50;0.30;;;19.90;99.90;;;;;;5053367;28;20538;-78
2023/06/29 03:02:07;;;;;;;0.50;0.40;;;19.90;99.90;;;;;;5053715;28;20811;-77
2023/06/29 03:04:34;;;;;;;0.50;0.30;;;19.90;99.90;;;;;;5052952;28;21042;-79
2023/06/29 03:07:01;;;;;;;0.50;0.40;;;19.90;99.90;;;;;;5052521;28;20527;-80
2023/06/29 03:09:29;;;;;;;0.50;0.30;;;19.80;99.90;;;;;;5053410;28;20810;-79
2023/06/29 03:11:56;;;;;;;0.50;0.30;;;19.80;99.90;;;;;;5053974;28;20441;-79
2023/06/29 03:14:23;;;;;;;0.50;0.40;;;19.80;99.90;;;;;;5054881;28;21013;-77
2023/06/29 03:16:50;;;;;;;0.50;0.30;;;19.70;99.90;;;;;;5054773;28;20440;-79
2023/06/29 03:19:17;;;;;;;0.50;0.30;;;19.70;99.90;;;;;;5054662;28;20543;-80
2023/06/29 03:21:44;;;;;;;0.50;0.40;;;19.70;99.90;;;;;;5055263;28;20864;-79
2023/06/29 03:24:11;;;;;;;0.97;0.97;;;19.70;99.90;;;;;;5042875;28;20454;-79
2023/06/29 03:26:39;;;;;;;0.50;0.30;;;19.70;99.90;;;;;;5034109;28;20534;-77
2023/06/29 03:29:06;;;;;;;1.07;1.07;;;19.80;99.90;;;;;;5054869;28;20509;-79
2023/06/29 03:31:32;;;;;;;0.50;0.30;;;19.80;99.90;;;;;;5058447;28;20942;-78
2023/06/29 03:34:01;;;;;;;0.50;0.30;;;19.80;99.90;;;;;;5058127;28;20489;-79
2023/06/29 03:36:28;;;;;;;0.50;0.40;;;19.80;99.90;;;;;;5057326;28;20990;-79
2023/06/29 03:38:55;;;;;;;0.50;0.40;;;19.80;99.90;;;;;;5057680;28;20481;-79
2023/06/29 03:41:22;;;;;;;0.50;0.30;;;19.70;99.90;;;;;;5057766;28;20476;-79
2023/06/29 03:43:50;;;;;;;0.50;0.40;;;19.70;99.90;;;;;;5057957;28;20461;-78
2023/06/29 03:46:17;;;;;;;0.50;0.40;;;19.70;99.90;;;;;;5057879;28;20551;-80
2023/06/29 03:48:44;;;;;;;0.50;0.30;;;19.70;99.90;;;;;;5057423;28;20506;-79
2023/06/29 03:51:10;;;;;;;0.50;0.30;;;19.70;99.90;;;;;;5057393;28;20443;-79
2023/06/29 03:53:37;;;;;;;0.50;0.30;;;19.80;99.90;;;;;;5057408;28;20547;-80
2023/06/29 03:56:04;;;;;;;0.50;0.30;;;19.70;99.90;;;;;;5057794;28;20474;-77
2023/06/29 03:58:31;;;;;;;0.50;0.30;;;19.70;99.90;;;;;;5058052;28;20441;-77
2023/06/29 04:00:59;;;;;;;0.50;0.40;;;19.70;99.90;;;;;;5057289;28;20897;-79
2023/06/29 04:03:26;;;;;;;0.50;0.30;;;19.80;99.90;;;;;;5058058;28;20448;-79
2023/06/29 04:05:53;;;;;;;0.50;0.30;;;19.80;99.90;;;;;;5058175;28;20931;-79
2023/06/29 04:08:20;;;;;;;0.50;0.30;;;19.80;99.90;;;;;;5057298;28;20437;-81
2023/06/29 04:10:46;;;;;;;0.50;0.30;;;19.80;99.90;;;;;;5057610;28;20883;-79
2023/06/29 04:13:13;;;;;;;0.50;0.30;;;19.80;99.90;;;;;;5057019;28;20441;-79
2023/06/29 04:15:40;;;;;;;0.50;0.30;;;19.80;99.90;;;;;;5057489;28;20514;-80
2023/06/29 04:18:08;;;;;;;0.50;0.30;;;19.90;99.90;;;;;;5049117;28;20450;-76
2023/06/29 04:20:37;;;;;;;0.50;0.30;;;19.90;99.90;;;;;;5049885;28;20928;-77
2023/06/29 04:23:04;;;;;;;0.50;0.30;;;19.80;99.90;;;;;;5039627;28;20808;-79
2023/06/29 04:25:32;;;;;;;0.50;0.30;;;19.80;99.90;;;;;;5037347;28;20456;-79
2023/06/29 04:27:59;;;;;;;0.50;0.40;;;19.80;99.90;;;;;;5047195;28;20955;-79
2023/06/29 04:30:26;;;;;;;0.50;0.30;;;19.80;99.90;;;;;;5057502;28;20442;-79
2023/06/29 04:32:53;;;;;;;0.50;0.50;;;19.90;99.90;;;;;;5057135;28;20433;-79
2023/06/29 04:35:21;;;;;;;0.50;0.30;;;19.90;99.90;;;;;;5057865;28;20570;-80
2023/06/29 04:37:48;;;;;;;0.50;0.30;;;19.90;99.90;;;;;;5057204;28;20994;-78
2023/06/29 04:40:15;;;;;;;0.50;0.30;;;19.90;99.90;;;;;;5056782;28;20440;-79
2023/06/29 04:42:45;;;;;;;0.50;0.30;;;19.90;99.90;;;;;;5056918;28;20534;-79
2023/06/29 04:45:17;;;;;;;0.50;0.40;;;19.90;99.90;;;;;;5057596;28;20505;-79
2023/06/29 04:47:44;;;;;;;0.50;0.30;;;19.90;99.90;;;;;;5057930;28;20483;-79
2023/06/29 04:50:11;;;;;;;1.57;1.47;;;19.90;99.90;;;;;;5057115;28;20445;-79
2023/06/29 04:52:40;;;;;;;0.50;0.40;;;19.90;99.90;;;;;;5057710;28;20549;-79
2023/06/29 04:55:09;;;;;;;0.50;0.30;;;19.90;99.90;;;;;;5056853;28;20489;-79
2023/06/29 04:57:36;;;;;;;0.50;0.50;;;19.90;99.90;;;;;;5057641;28;20535;-79
2023/06/29 05:00:07;;;;;;;0.50;0.30;;;19.90;99.90;;;;;;5056921;28;20449;-77
2023/06/29 05:02:33;;;;;;;0.50;0.30;;;19.90;99.90;;;;;;5058443;28;20461;-79
2023/06/29 05:05:00;;;;;;;0.50;0.30;;;19.90;99.90;;;;;;5057439;28;20461;-78
2023/06/29 05:07:27;;;;;;;0.50;0.30;;;19.90;99.90;;;;;;5057319;28;20939;-80
2023/06/29 05:09:55;;;;;;;0.50;0.30;;;19.80;99.90;;;;;;5056494;28;20437;-80
2023/06/29 05:12:22;;;;;;;0.50;0.30;;;19.80;99.90;;;;;;5057349;28;20557;-79
2023/06/29 05:14:49;;;;;;;0.50;0.30;;;19.80;99.90;;;;;;5057721;28;20473;-80
2023/06/29 05:17:17;;;;;;;0.50;0.30;;;19.80;99.90;;;;;;5057446;28;20447;-79
2023/06/29 05:19:44;;;;;;;0.50;0.30;;;19.90;99.90;;;;;;5057418;28;20443;-79
2023/06/29 05:22:11;;;;;;;0.50;0.50;;;19.90;99.90;;;;;;5057085;28;20436;-80
2023/06/29 05:24:38;;;;;;;0.50;0.30;;;20.00;99.90;;;;;;5057861;28;20463;-79
2023/06/29 05:27:07;;;;;;;0.50;0.40;;;20.00;99.90;;;;;;5057579;28;20453;-80
2023/06/29 05:29:34;;;;;;;0.50;0.30;;;20.10;99.90;;;;;;5057619;28;20441;-79
2023/06/29 05:32:00;;;;;;;0.50;0.30;;;20.10;99.90;;;;;;5056479;28;20441;-80
2023/06/29 05:34:27;;;;;;;0.50;0.30;;;20.20;99.90;;;;;;5057542;28;20477;-79
2023/06/29 05:36:54;;;;;;;0.50;0.30;;;20.20;99.90;;;;;;5057149;28;20521;-80
2023/06/29 05:39:21;;;;;;;0.50;0.30;;;20.30;99.90;;;;;;5056932;28;20512;-79
2023/06/29 05:41:48;;;;;;;0.50;0.30;;;20.40;99.90;;;;;;5058479;28;20479;-79
2023/06/29 05:44:16;;;;;;;0.50;0.30;;;20.50;99.90;;;;;;5057600;28;20461;-79
2023/06/29 05:46:43;;;;;;;0.50;0.37;;;20.50;99.90;;;;;;5056843;28;20527;-79
2023/06/29 05:49:10;;;;;;;0.50;0.30;;;20.60;99.90;;;;;;5058245;28;20528;-77
2023/06/29 05:51:37;;;;;;;0.60;0.60;;;20.60;99.90;;;;;;5058107;28;20486;-79
2023/06/29 05:54:04;;;;;;;0.50;0.30;;;20.80;99.90;;;;;;5057548;28;20467;-78
2023/06/29 05:56:31;;;;;;;0.50;0.40;;;20.80;99.90;;;;;;5057516;28;20445;-79
2023/06/29 05:58:58;;;;;;;2.00;1.43;;;20.80;99.90;;;;;;5056940;28;20769;-79
2023/06/29 06:01:26;;;;;;;0.50;0.30;;;20.90;99.90;;;;;;5057754;28;20464;-80
2023/06/29 06:03:54;;;;;;;0.50;0.30;;;20.80;99.90;;;;;;5057037;28;20855;-79
2023/06/29 06:06:21;;;;;;;0.50;0.40;;;20.90;99.90;;;;;;5056917;28;20476;-80
2023/06/29 06:08:48;;;;;;;1.03;0.93;;;20.90;99.90;;;;;;5056313;28;20815;-80
2023/06/29 06:11:15;;;;;;;0.60;0.50;;;21.00;99.90;;;;;;5056295;28;20443;-80
2023/06/29 06:13:42;;;;;;;0.50;0.33;;;20.90;99.90;;;;;;5056923;28;20480;-78
2023/06/29 06:16:09;;;;;;;1.27;1.00;;;20.90;99.90;;;;;;5056121;28;20843;-80
2023/06/29 06:18:37;;;;;;;0.50;0.40;;;21.00;99.90;;;;;;5055443;28;20471;-78
2023/06/29 06:21:04;;;;;;;0.90;0.90;;;21.00;99.90;;;;;;5056267;28;20791;-79
2023/06/29 06:23:31;;;;;;;0.50;0.40;;;21.00;99.90;;;;;;5056468;28;20443;-79
2023/06/29 06:25:58;;;;;;;0.50;0.30;;;21.00;99.90;;;;;;5056237;28;20535;-80
2023/06/29 06:28:25;;;;;;;0.50;0.30;;;21.00;99.90;;;;;;5044058;28;20443;-79
2023/06/29 06:30:52;;;;;;;0.50;0.30;;;21.00;99.90;;;;;;5036165;28;20448;-79
2023/06/29 06:33:19;;;;;;;0.50;0.30;;;21.00;99.90;;;;;;5046788;28;20458;-80
2023/06/29 06:35:47;;;;;;;1.37;1.10;;;21.10;99.90;;;;;;5042027;28;20477;-78
2023/06/29 06:38:14;;;;;;;0.50;0.30;;;21.20;99.90;;;;;;5043561;28;20442;-80
2023/06/29 06:40:41;;;;;;;0.50;0.30;;;21.20;99.90;;;;;;5036800;28;20481;-79
2023/06/29 06:43:07;;;;;;;0.50;0.30;;;21.40;99.90;;;;;;5044997;28;20470;-78
2023/06/29 06:45:34;;;;;;;0.50;0.40;;;21.50;99.90;;;;;;5056748;28;20536;-80
2023/06/29 06:48:01;;;;;;;0.50;0.30;;;21.60;99.90;;;;;;5056354;28;20510;-79
2023/06/29 06:50:28;;;;;;;0.50;0.30;;;21.80;99.90;;;;;;5055943;28;20516;-80
2023/06/29 06:52:56;;;;;;;0.50;0.30;;;21.90;99.90;;;;;;5055797;28;20441;-79
2023/06/29 06:55:23;;;;;;;0.50;0.30;;;21.90;99.90;;;;;;5055640;28;20560;-79
2023/06/29 06:57:50;;;;;;;0.50;0.40;;;21.90;99.90;;;;;;5056282;28;20761;-79
2023/06/29 07:00:18;;;;;;;0.60;0.60;;;21.90;99.90;;;;;;5055228;28;20508;-79
2023/06/29 07:02:45;;;;;;;0.50;0.50;;;21.80;99.90;;;;;;5056702;28;20437;-80
2023/06/29 07:05:12;;;;;;;0.50;0.40;;;21.90;99.90;;;;;;5059732;28;20552;-80
2023/06/29 07:07:38;;;;;;;0.50;0.30;;;21.80;99.90;;;;;;5060322;28;20537;-80
2023/06/29 07:10:07;;;;;;;0.60;0.60;;;21.80;99.90;;;;;;5060154;28;20446;-79
2023/06/29 07:12:34;;;;;;;0.50;0.30;;;21.80;99.90;;;;;;5061340;28;20444;-80
2023/06/29 07:15:01;;;;;;;1.80;1.80;;;21.90;99.90;;;;;;5060635;28;20566;-80
2023/06/29 07:17:28;;;;;;;0.50;0.30;;;21.80;99.90;;;;;;5060287;28;20504;-80
2023/06/29 07:19:55;;;;;;;2.20;0.80;;;21.80;99.90;;;;;;5059604;28;20457;-81
2023/06/29 07:22:22;;;;;;;0.50;0.30;;;21.80;99.90;;;;;;5060588;28;20448;-77
2023/06/29 07:24:48;;;;;;;0.50;0.30;;;21.80;99.90;;;;;;5060123;28;20550;-79
2023/06/29 07:27:17;;;;;;;0.50;0.30;;;21.80;99.90;;;;;;5059049;28;21009;-80
2023/06/29 07:29:46;;;;;;;0.50;0.40;;;21.80;99.90;;;;;;5059640;28;20444;-80
2023/06/29 07:32:13;;;;;;;0.50;0.40;;;21.70;99.90;;;;;;5059687;28;20472;-79
2023/06/29 07:34:39;;;;;;;0.77;0.77;;;21.60;99.90;;;;;;5058855;28;20488;-78
2023/06/29 07:37:06;;;;;;;0.50;0.30;;;21.60;99.90;;;;;;5060145;28;20471;-79
2023/06/29 07:39:34;;;;;;;0.87;0.87;;;21.60;99.90;;;;;;5042821;28;20461;-76
2023/06/29 07:42:01;;;;;;;2.23;1.97;;;21.70;99.90;;;;;;5060554;28;20437;-80
2023/06/29 07:44:29;;;;;;;0.50;0.30;;;21.80;99.90;;;;;;5059443;28;20453;-77
2023/06/29 07:46:56;;;;;;;0.50;0.40;;;21.70;99.90;;;;;;5060027;28;20439;-80
2023/06/29 07:49:23;;;;;;;0.63;0.60;;;21.70;99.90;;;;;;5058598;28;20528;-79
2023/06/29 07:51:50;;;;;;;0.70;0.67;;;21.70;99.90;;;;;;5058898;28;20512;-79
2023/06/29 07:54:18;;;;;;;0.50;0.30;;;21.60;99.90;;;;;;5059123;28;20487;-79
2023/06/29 07:56:45;;;;;;;0.50;0.30;;;21.50;99.90;;;;;;5060658;28;20472;-78
2023/06/29 07:59:11;;;;;;;0.93;0.93;;;21.60;99.90;;;;;;5059086;28;20519;-79
2023/06/29 08:01:40;;;;;;;0.70;0.50;;;21.60;99.90;;;;;;5059440;28;20442;-78
2023/06/29 08:04:07;;;;;;;0.50;0.40;;;21.60;99.90;;;;;;5059118;28;20473;-80
2023/06/29 08:06:34;;;;;;;0.50;0.30;;;21.60;99.90;;;;;;5058932;28;20463;-79
2023/06/29 08:09:01;;;;;;;0.50;0.40;;;21.70;99.90;;;;;;5058732;28;21025;-79
2023/06/29 08:11:28;;;;;;;0.50;0.40;;;21.80;99.90;;;;;;5055702;28;20444;-78
2023/06/29 08:13:55;;;;;;;2.00;0.70;;;21.80;99.90;;;;;;5038574;28;20466;-80
2023/06/29 08:16:21;;;;;;;0.50;0.40;;;22.00;99.90;;;;;;5047013;28;20476;-79
2023/06/29 08:18:50;;;;;;;0.50;0.30;;;22.20;99.90;;;;;;5052096;28;20472;-80
2023/06/29 08:21:17;;;;;;;0.50;0.30;;;22.40;99.90;;;;;;5059093;28;20543;-79
2023/06/29 08:23:46;;;;;;;0.50;0.30;;;22.60;99.90;;;;;;5059580;28;20528;-80
2023/06/29 08:26:13;;;;;;;2.10;0.70;;;23.00;99.90;;;;;;5058876;28;20862;-77
2023/06/29 08:28:40;;;;;;;0.50;0.40;;;23.10;99.90;;;;;;5059218;28;20520;-79
2023/06/29 08:31:06;;;;;;;0.50;0.40;;;23.20;99.90;;;;;;5059670;28;20486;-80
2023/06/29 08:33:33;;;;;;;0.73;0.60;;;23.30;99.90;;;;;;5058779;28;20873;-79
2023/06/29 08:36:02;;;;;;;0.50;0.30;;;23.30;99.90;;;;;;5060290;22;20494;-84
2023/06/29 08:38:28;;;;;;;0.50;0.30;;;23.20;99.90;;;;;;5028745;28;20539;-82
2023/06/29 08:40:59;;;;;;;0.50;0.30;;;23.20;99.90;;;;;;5042507;28;20455;-85
2023/06/29 08:43:27;;;;;;;0.50;0.30;;;23.10;99.90;;;;;;5042665;28;20540;-84
2023/06/29 08:45:54;;;;;;;0.50;0.30;;;23.10;99.90;;;;;;5037310;28;20459;-84
2023/06/29 08:48:23;;;;;;;0.77;0.77;;;23.00;99.90;;;;;;5039165;28;20531;-81
2023/06/29 08:50:54;;;;;;;0.50;0.30;;;23.00;99.90;;;;;;5032224;28;20550;-82
2023/06/29 08:53:22;;;;;;;0.50;0.30;;;22.80;99.90;;;;;;5040132;28;20448;-81
2023/06/29 08:55:50;;;;;;;0.50;0.30;;;22.90;99.90;;;;;;5027945;28;20474;-82
2023/06/29 08:58:17;;;;;;;0.50;0.30;;;22.90;99.90;;;;;;5034867;28;20529;-81
2023/06/29 09:00:45;;;;;;;0.50;0.30;;;22.80;99.90;;;;;;5032597;28;20533;-83
2023/06/29 09:03:12;;;;;;;0.50;0.30;;;22.80;99.90;;;;;;5038798;28;20524;-85
2023/06/29 09:05:39;;;;;;;0.50;0.30;;;22.70;99.90;;;;;;5026398;28;20458;-84
2023/06/29 09:08:07;;;;;;;0.50;0.40;;;22.70;99.90;;;;;;5038751;28;20451;-80
2023/06/29 09:10:37;;;;;;;0.50;0.30;;;22.70;99.90;;;;;;5039531;28;20453;-82
2023/06/29 09:13:05;;;;;;;0.50;0.30;;;22.70;99.90;;;;;;5037287;28;20438;-84
2023/06/29 09:15:32;;;;;;;0.50;0.30;;;22.60;99.90;;;;;;5034438;28;20505;-83
2023/06/29 09:18:00;;;;;;;0.50;0.30;;;22.40;99.90;;;;;;5034956;28;20442;-82
2023/06/29 09:21:08;;;;;;;0.50;0.30;;;22.30;99.90;;;;;;5033077;28;20449;-82
2023/06/29 09:23:35;;;;;;;0.50;0.40;;;22.30;99.90;;;;;;5027773;28;20453;-82
2023/06/29 09:26:05;;;;;;;0.87;0.87;;;22.30;99.90;;;;;;5032985;28;20488;-83
2023/06/29 09:28:35;;;;;;;0.50;0.40;;;22.40;99.90;;;;;;5041256;28;20794;-83
2023/06/29 09:31:08;;;;;;;0.50;0.40;;;22.40;99.90;;;;;;5042565;28;20474;-84
2023/06/29 09:33:35;;;;;;;0.60;0.53;;;22.30;99.90;;;;;;5041933;28;20445;-83
2023/06/29 09:36:07;;;;;;;0.50;0.30;;;22.20;99.90;;;;;;5032805;28;20922;-84
2023/06/29 09:38:34;;;;;;;1.43;1.37;;;22.30;99.90;;;;;;5031684;28;20860;-84
2023/06/29 09:41:06;;;;;;;0.50;0.30;;;22.30;99.90;;;;;;5030334;28;20454;-83
2023/06/29 09:43:34;;;;;;;0.50;0.40;;;22.40;99.90;;;;;;5039680;28;20445;-82
2023/06/29 09:46:07;;;;;;;5.43;3.00;;;22.40;99.90;;;;;;5041624;28;20527;-85
2023/06/29 09:48:34;;;;;;;0.50;0.40;;;22.60;99.90;;;;;;5040767;28;20438;-85
2023/06/29 09:51:01;;;;;;;0.50;0.30;;;22.80;99.90;;;;;;5041615;28;20442;-85
2023/06/29 09:53:32;;;;;;;0.50;0.30;;;22.90;99.90;;;;;;5032947;28;20445;-84
2023/06/29 09:56:00;;;;;;;0.50;0.40;;;23.00;99.90;;;;;;5041717;28;20500;-85
2023/06/29 09:58:29;;;;;;;0.50;0.50;;;23.20;99.90;;;;;;5040344;28;20446;-84
2023/06/29 10:00:58;;;;;;;0.50;0.40;;;23.10;99.90;;;;;;5030939;28;20459;-85
2023/06/29 10:03:25;;;;;;;0.50;0.30;;;23.30;99.90;;;;;;5037754;28;21028;-84
2023/06/29 10:05:56;;;;;;;0.50;0.40;;;23.50;99.90;;;;;;5033206;28;20493;-85
2023/06/29 10:08:23;;;;;;;3.30;1.43;;;23.70;99.90;;;;;;5033415;28;20458;-84
2023/06/29 10:10:54;;;;;;;0.50;0.40;;;23.90;99.90;;;;;;5026683;28;20431;-84
2023/06/29 10:13:21;;;;;;;0.50;0.40;;;24.10;99.90;;;;;;5041951;28;20519;-82
2023/06/29 10:15:52;;;;;;;0.50;0.50;;;24.50;99.90;;;;;;5017606;28;20482;-85
2023/06/29 10:18:25;;;;;;;0.50;0.30;;;24.90;99.90;;;;;;5042133;28;20510;-82
2023/06/29 10:20:52;;;;;;;0.50;0.30;;;25.40;99.90;;;;;;5026581;28;20505;-84
2023/06/29 10:23:23;;;;;;;1.17;1.07;;;25.80;99.90;;;;;;5046961;28;20443;-81
2023/06/29 10:25:58;;;;;;;0.50;0.37;;;26.40;99.90;;;;;;5034053;28;20455;-82
2023/06/29 10:28:35;;;;;;;0.50;0.50;;;26.70;99.90;;;;;;5040639;28;20451;-81
2023/06/29 10:31:06;;;;;;;0.50;0.30;;;26.70;99.90;;;;;;5045887;28;20449;-83
2023/06/29 10:33:46;;;;;;;0.50;0.30;;;26.90;99.90;;;;;;5034918;28;20459;-84
2023/06/29 10:36:14;;;;;;;0.50;0.30;;;27.10;99.90;;;;;;5027969;28;20488;-83
2023/06/29 10:38:41;;;;;;;1.70;1.60;;;27.00;99.90;;;;;;5042990;28;20468;-84
2023/06/29 10:41:24;;;;;;;2.70;2.30;;;27.10;99.90;;;;;;5037775;28;20445;-82
2023/06/29 10:43:58;;;;;;;1.97;1.87;;;27.40;99.90;;;;;;5032427;28;20508;-83
2023/06/29 10:46:49;;;;;;;0.50;0.30;;;27.30;99.90;;;;;;5036591;28;20457;-83
2023/06/29 10:49:23;;;;;;;0.50;0.30;;;27.50;99.90;;;;;;5028185;28;20493;-84
2023/06/29 10:51:51;;;;;;;0.50;0.30;;;27.70;99.90;;;;;;5042368;28;20439;-83
2023/06/29 10:54:18;;;;;;;0.50;0.30;;;28.00;99.90;;;;;;5033802;28;20451;-84
2023/06/29 10:56:58;;;;;;;2.20;2.10;;;28.40;99.90;;;;;;5035955;28;20554;-83
2023/06/29 10:59:26;;;;;;;0.50;0.40;;;28.80;99.90;;;;;;5037419;28;20812;-84
2023/06/29 11:01:55;;;;;;;1.27;1.17;;;29.10;99.90;;;;;;5029404;28;20443;-82
2023/06/29 11:04:23;;;;;;;0.50;0.30;;;28.70;99.90;;;;;;5045622;28;20438;-82
2023/06/29 11:06:50;;;;;;;0.60;0.50;;;28.30;99.90;;;;;;5041148;28;20493;-85
2023/06/29 11:09:19;;;;;;;0.50;0.30;;;27.90;99.90;;;;;;5038686;28;20541;-83
2023/06/29 11:11:47;;;;;;;1.17;0.50;;;27.00;99.90;;;;;;5044466;28;20473;-84
2023/06/29 11:14:14;;;;;;;0.50;0.40;;;26.30;99.90;;;;;;5044207;28;20499;-84
2023/06/29 11:16:41;;;;;;;0.50;0.40;;;25.70;99.90;;;;;;5035227;28;20580;-84
2023/06/29 11:19:11;;;;;;;0.50;0.30;;;25.40;99.90;;;;;;5044519;28;20459;-84
2023/06/29 11:21:37;;;;;;;0.50;0.40;;;25.10;99.90;;;;;;5044692;28;20464;-84
2023/06/29 11:24:05;;;;;;;0.50;0.30;;;24.90;99.90;;;;;;5040360;28;20815;-85
2023/06/29 11:26:32;;;;;;;0.50;0.50;;;24.70;99.90;;;;;;5041847;28;20457;-84
2023/06/29 11:28:59;;;;;;;0.50;0.40;;;24.50;99.90;;;;;;5036389;28;20449;-84
2023/06/29 11:31:26;;;;;;;0.50;0.30;;;24.20;99.90;;;;;;5045574;28;20477;-85
2023/06/29 11:33:54;;;;;;;0.50;0.30;;;23.90;99.90;;;;;;5036298;28;20440;-85
2023/06/29 11:36:33;;;;;;;0.50;0.30;;;23.80;99.90;;;;;;5038500;28;21076;-84
2023/06/29 11:39:04;;;;;;;1.83;0.70;;;23.70;99.90;;;;;;5026426;28;20474;-85
2023/06/29 11:41:31;;;;;;;1.30;1.03;;;23.60;99.90;;;;;;5036728;28;20466;-83
2023/06/29 11:44:00;;;;;;;1.00;0.73;;;23.30;99.90;;;;;;5043966;28;20496;-84
2023/06/29 11:46:27;;;;;;;0.50;0.30;;;23.00;99.90;;;;;;5040972;28;20462;-84
2023/06/29 11:48:56;;;;;;;0.50;0.30;;;22.70;99.90;;;;;;5035067;28;20518;-83
2023/06/29 11:51:24;;;;;;;0.50;0.30;;;22.60;99.90;;;;;;5044645;28;20801;-84
2023/06/29 11:53:53;;;;;;;0.50;0.40;;;22.50;99.90;;;;;;5044284;28;20449;-85
2023/06/29 11:56:26;;;;;;;0.50;0.40;;;22.40;99.90;;;;;;5035946;28;20490;-83
2023/06/29 11:58:53;;;;;;;0.50;0.40;;;22.40;99.90;;;;;;5028460;28;20503;-84
2023/06/29 12:01:20;;;;;;;0.50;0.40;;;22.40;99.90;;;;;;5035963;28;20539;-83
2023/06/29 12:03:48;;;;;;;0.50;0.30;;;22.50;99.90;;;;;;5035494;28;20471;-84
2023/06/29 12:06:15;;;;;;;0.50;0.30;;;22.50;99.90;;;;;;5036545;28;20488;-84
2023/06/29 12:08:42;;;;;;;0.50;0.30;;;22.50;99.90;;;;;;5034035;28;20528;-84
2023/06/29 12:11:17;;;;;;;0.50;0.30;;;22.70;99.90;;;;;;5033178;28;20477;-85
2023/06/29 12:13:45;;;;;;;0.50;0.30;;;22.80;99.90;;;;;;5043115;28;20449;-84
2023/06/29 12:16:12;;;;;;;0.50;0.30;;;23.10;99.90;;;;;;5036265;28;20461;-82
2023/06/29 12:18:39;;;;;;;0.50;0.40;;;23.30;99.90;;;;;;5043251;28;20481;-85
2023/06/29 12:21:06;;;;;;;0.50;0.30;;;23.60;99.90;;;;;;5024792;28;20466;-83
2023/06/29 12:23:32;;;;;;;0.50;0.30;;;23.90;99.90;;;;;;5032640;28;21002;-84
2023/06/29 12:25:59;;;;;;;0.50;0.40;;;24.10;99.90;;;;;;5035160;28;20484;-85
2023/06/29 12:28:28;;;;;;;5.53;2.40;;;24.20;99.90;;;;;;5036429;28;20431;-85
2023/06/29 12:30:54;;;;;;;0.50;0.30;;;24.20;99.90;;;;;;5040051;28;20515;-85
2023/06/29 12:33:21;;;;;;;0.50;0.40;;;24.10;99.90;;;;;;5038348;28;20448;-82
2023/06/29 12:35:49;;;;;;;0.50;0.30;;;24.40;99.90;;;;;;5033258;28;20476;-84
2023/06/29 12:38:16;;;;;;;0.50;0.30;;;24.60;99.90;;;;;;5037607;28;20474;-83
2023/06/29 12:40:42;;;;;;;0.50;0.30;;;24.90;99.90;;;;;;5043794;28;20528;-84
2023/06/29 12:43:09;;;;;;;0.50;0.30;;;25.20;99.90;;;;;;5035557;28;20451;-85
2023/06/29 12:45:37;;;;;;;0.50;0.30;;;25.20;99.90;;;;;;5043674;28;20493;-85
2023/06/29 12:48:04;;;;;;;0.50;0.30;;;25.40;99.90;;;;;;5028805;28;20434;-84
2023/06/29 12:50:31;;;;;;;0.50;0.30;;;25.40;99.90;;;;;;5043850;28;20506;-83
2023/06/29 12:52:58;;;;;;;0.50;0.30;;;25.20;99.90;;;;;;5035610;28;20458;-84